Time,TemperatureF,DewpointF,PressureIn,WindDirection,WindDirectionDegrees,WindSpeedMPH,WindSpeedGustMPH,Humidity,HourlyPrecipIn,Conditions,Clouds,dailyrainin,SoftwareType,DateUTC
2013-02-08 00:29:00,34.2,33.4,29.95,NW,312,6.0,6.0,97,0.00,,,0.00,Wunderground v.1.15,2013-02-08 08:29:00,
2013-02-08 00:59:00,33.7,32.9,29.94,NW,323,4.0,4.0,97,0.00,,,0.00,Wunderground v.1.15,2013-02-08 08:59:00,
2013-02-08 01:29:00,33.5,32.7,29.92,NW,305,3.0,3.0,97,0.00,,,0.00,Wunderground v.1.15,2013-02-08 09:29:00,
2013-02-08 01:59:00,33.5,32.7,29.92,WNW,288,3.0,5.0,97,0.00,,,0.00,Wunderground v.1.15,2013-02-08 09:59:00,
2013-02-08 02:29:00,33.3,32.5,29.90,West,280,3.0,4.0,97,0.00,,,0.01,Wunderground v.1.15,2013-02-08 10:29:00,
2013-02-08 02:59:00,32.0,31.2,29.89,NW,312,4.0,4.0,97,0.00,,,0.01,Wunderground v.1.15,2013-02-08 10:59:00,
2013-02-08 03:29:00,31.8,31.3,29.89,WNW,303,4.0,4.0,98,0.00,,,0.01,Wunderground v.1.15,2013-02-08 11:29:00,
2013-02-08 03:59:00,32.3,31.8,29.89,North,356,3.0,3.0,98,0.00,,,0.01,Wunderground v.1.15,2013-02-08 11:59:00,
2013-02-08 04:29:00,32.1,31.6,29.88,NW,304,4.0,4.0,98,0.00,,,0.01,Wunderground v.1.15,2013-02-08 12:29:00,
2013-02-08 04:59:00,31.7,31.2,29.88,NW,310,5.0,5.0,98,0.00,,,0.01,Wunderground v.1.15,2013-02-08 12:59:00,
2013-02-08 05:29:00,30.9,30.4,29.90,NW,309,2.0,2.0,98,0.00,,,0.01,Wunderground v.1.15,2013-02-08 13:29:00,
2013-02-08 05:59:00,30.1,29.6,29.90,WNW,296,2.0,4.0,98,0.00,,,0.01,Wunderground v.1.15,2013-02-08 13:59:00,
2013-02-08 06:29:00,30.0,29.5,29.90,WNW,299,5.0,5.0,98,0.00,,,0.01,Wunderground v.1.15,2013-02-08 14:29:00,
2013-02-08 06:59:00,29.6,28.9,29.91,WNW,303,6.0,6.0,97,0.00,,,0.01,Wunderground v.1.15,2013-02-08 14:59:00,
2013-02-08 07:29:00,29.7,29.2,29.91,NNW,329,3.0,3.0,98,0.00,,,0.01,Wunderground v.1.15,2013-02-08 15:29:00,
2013-02-08 07:59:00,29.7,29.2,29.91,NNW,335,3.0,3.0,98,0.00,,,0.01,Wunderground v.1.15,2013-02-08 15:59:00,
2013-02-08 08:29:00,30.1,29.6,29.92,WNW,299,3.0,3.0,98,0.00,,,0.01,Wunderground v.1.15,2013-02-08 16:29:00,
2013-02-08 08:59:00,30.3,29.8,29.90,WNW,300,3.0,5.0,98,0.00,,,0.01,Wunderground v.1.15,2013-02-08 16:59:00,
2013-02-08 09:29:00,30.1,29.6,29.90,WNW,299,3.0,5.0,98,0.00,,,0.01,Wunderground v.1.15,2013-02-08 17:29:00,
2013-02-08 09:59:00,30.0,29.3,29.90,WNW,295,4.0,4.0,97,0.00,,,0.01,Wunderground v.1.15,2013-02-08 17:59:00,
2013-02-08 10:29:00,30.1,29.6,29.91,West,268,4.0,7.0,98,0.00,,,0.01,Wunderground v.1.15,2013-02-08 18:29:00,
2013-02-08 10:59:00,30.8,30.3,29.91,NW,304,4.0,4.0,98,0.00,,,0.01,Wunderground v.1.15,2013-02-08 18:59:00,
2013-02-08 11:29:00,30.7,30.2,29.89,NW,322,4.0,6.0,98,0.00,,,0.01,Wunderground v.1.15,2013-02-08 19:29:00,
2013-02-08 11:59:00,30.6,30.1,29.89,WNW,288,5.0,6.0,98,0.00,,,0.01,Wunderground v.1.15,2013-02-08 19:59:00,
2013-02-08 12:29:00,31.2,30.7,29.87,WNW,303,4.0,4.0,98,0.00,,,0.01,Wunderground v.1.15,2013-02-08 20:29:00,
2013-02-08 12:59:00,31.2,30.7,29.85,NW,317,5.0,5.0,98,0.00,,,0.01,Wunderground v.1.15,2013-02-08 20:59:00,
2013-02-08 13:29:00,28.4,27.7,29.88,NW,305,4.0,4.0,97,0.00,,,0.01,Wunderground v.1.15,2013-02-08 21:29:00,
2013-02-08 13:59:00,29.2,28.5,29.87,WNW,293,1.0,1.0,97,0.00,,,0.01,Wunderground v.1.15,2013-02-08 21:59:00,
2013-02-08 14:29:00,29.2,28.5,29.86,WNW,299,2.0,2.0,97,0.00,,,0.01,Wunderground v.1.15,2013-02-08 22:29:00,
2013-02-08 14:59:00,29.7,29.2,29.86,NW,321,3.0,4.0,98,0.00,,,0.01,Wunderground v.1.15,2013-02-08 22:59:00,
2013-02-08 15:29:00,29.6,28.9,29.85,NW,309,4.0,4.0,97,0.00,,,0.01,Wunderground v.1.15,2013-02-08 23:29:00,
2013-02-08 15:59:00,28.9,28.2,29.86,South,170,1.0,1.0,97,0.00,,,0.01,Wunderground v.1.15,2013-02-08 23:59:00,
2013-02-08 16:29:00,28.8,28.3,29.86,WNW,295,3.0,3.0,98,0.00,,,0.01,Wunderground v.1.15,2013-02-09 00:29:00,
2013-02-08 16:59:00,28.6,27.9,29.86,NW,304,3.0,3.0,97,0.00,,,0.01,Wunderground v.1.15,2013-02-09 00:59:00,
2013-02-08 17:29:00,28.3,27.6,29.87,NW,306,1.0,1.0,97,0.00,,,0.01,Wunderground v.1.15,2013-02-09 01:29:00,
2013-02-08 17:59:00,28.2,27.5,29.87,WNW,299,2.0,2.0,97,0.00,,,0.01,Wunderground v.1.15,2013-02-09 01:59:00,
2013-02-08 18:29:00,28.6,28.1,29.88,WNW,288,3.0,3.0,98,0.00,,,0.01,Wunderground v.1.15,2013-02-09 02:29:00,
2013-02-08 18:59:00,28.6,28.1,29.89,NW,306,3.0,3.0,98,0.00,,,0.01,Wunderground v.1.15,2013-02-09 02:59:00,
2013-02-08 19:29:00,28.1,27.4,29.89,WNW,295,3.0,3.0,97,0.00,,,0.01,Wunderground v.1.15,2013-02-09 03:29:00,
2013-02-08 19:59:00,28.1,27.6,29.88,WNW,297,3.0,3.0,98,0.00,,,0.01,Wunderground v.1.15,2013-02-09 03:59:00,
2013-02-08 20:29:00,28.1,27.6,29.89,WNW,302,1.0,2.0,98,0.00,,,0.01,Wunderground v.1.15,2013-02-09 04:29:00,
2013-02-08 20:59:00,27.6,26.9,29.90,WNW,301,2.0,2.0,97,0.00,,,0.01,Wunderground v.1.15,2013-02-09 04:59:00,
2013-02-08 21:29:00,27.4,26.7,29.90,NW,311,1.0,2.0,97,0.00,,,0.01,Wunderground v.1.15,2013-02-09 05:29:00,
2013-02-08 21:59:00,27.4,26.7,29.91,WNW,297,1.0,1.0,97,0.00,,,0.01,Wunderground v.1.15,2013-02-09 05:59:00,
2013-02-08 22:29:00,27.4,26.7,29.91,WNW,301,1.0,1.0,97,0.00,,,0.01,Wunderground v.1.15,2013-02-09 06:29:00,
2013-02-08 22:59:00,27.6,27.1,29.91,WNW,297,1.0,1.0,98,0.00,,,0.01,Wunderground v.1.15,2013-02-09 06:59:00,
2013-02-08 23:29:00,27.6,26.9,29.91,WNW,293,0.0,0.0,97,0.00,,,0.01,Wunderground v.1.15,2013-02-09 07:29:00,
2013-02-08 23:59:00,27.6,26.9,29.92,WNW,301,1.0,1.0,97,0.00,,,0.00,Wunderground v.1.15,2013-02-09 07:59:00,